sensor_id;sensor_type;location;lat;lon;timestamp;P1;durP1;ratioP1;P2;durP2;ratioP2
53688;SDS011;39583;54.682;30.662;2023-10-31T09:31:51;8.35;;;6.28;;
53688;SDS011;39583;54.682;30.662;2023-10-31T09:34:18;10.13;;;6.25;;
53688;SDS011;39583;54.682;30.662;2023-10-31T09:36:46;8.00;;;5.85;;
53688;SDS011;39583;54.682;30.662;2023-10-31T09:39:13;11.45;;;5.97;;
53688;SDS011;39583;54.682;30.662;2023-10-31T09:41:40;9.63;;;5.65;;
53688;SDS011;39583;54.682;30.662;2023-10-31T09:44:08;10.90;;;5.43;;
53688;SDS011;39583;54.682;30.662;2023-10-31T09:46:36;9.65;;;5.95;;
53688;SDS011;39583;54.682;30.662;2023-10-31T09:49:04;7.68;;;5.20;;
53688;SDS011;39583;54.682;30.662;2023-10-31T09:51:32;10.82;;;5.10;;
53688;SDS011;39583;54.682;30.662;2023-10-31T09:53:59;9.35;;;5.65;;
53688;SDS011;39583;54.682;30.662;2023-10-31T09:56:30;6.47;;;4.75;;
53688;SDS011;39583;54.682;30.662;2023-10-31T09:59:01;6.32;;;4.82;;
53688;SDS011;39583;54.682;30.662;2023-10-31T10:01:29;10.57;;;5.63;;
53688;SDS011;39583;54.682;30.662;2023-10-31T12:41:22;8.50;;;4.20;;
53688;SDS011;39583;54.682;30.662;2023-10-31T12:43:50;5.70;;;3.38;;
53688;SDS011;39583;54.682;30.662;2023-10-31T12:46:27;9.88;;;3.67;;
53688;SDS011;39583;54.682;30.662;2023-10-31T12:48:56;8.82;;;3.67;;
53688;SDS011;39583;54.682;30.662;2023-10-31T12:51:25;5.63;;;3.25;;
53688;SDS011;39583;54.682;30.662;2023-10-31T12:53:53;7.70;;;3.90;;
53688;SDS011;39583;54.682;30.662;2023-10-31T12:59:08;5.35;;;2.75;;
53688;SDS011;39583;54.682;30.662;2023-10-31T13:01:37;6.95;;;3.10;;
53688;SDS011;39583;54.682;30.662;2023-10-31T13:04:12;7.07;;;3.30;;
53688;SDS011;39583;54.682;30.662;2023-10-31T13:06:39;5.63;;;3.20;;
53688;SDS011;39583;54.682;30.662;2023-10-31T13:09:07;9.93;;;3.70;;
53688;SDS011;39583;54.682;30.662;2023-10-31T13:11:39;7.57;;;3.13;;
53688;SDS011;39583;54.682;30.662;2023-10-31T13:14:07;5.80;;;2.90;;
53688;SDS011;39583;54.682;30.662;2023-10-31T13:16:34;7.22;;;3.65;;
53688;SDS011;39583;54.682;30.662;2023-10-31T13:19:02;6.78;;;3.40;;
53688;SDS011;39583;54.682;30.662;2023-10-31T13:21:29;10.20;;;3.53;;
53688;SDS011;39583;54.682;30.662;2023-10-31T13:23:56;6.40;;;3.17;;
53688;SDS011;39583;54.682;30.662;2023-10-31T13:26:23;8.40;;;3.42;;
53688;SDS011;39583;54.682;30.662;2023-10-31T13:28:51;7.68;;;3.15;;
53688;SDS011;39583;54.682;30.662;2023-10-31T13:31:20;5.72;;;3.25;;
53688;SDS011;39583;54.682;30.662;2023-10-31T13:33:47;7.15;;;3.10;;
53688;SDS011;39583;54.682;30.662;2023-10-31T13:36:16;7.18;;;3.13;;
53688;SDS011;39583;54.682;30.662;2023-10-31T13:38:46;7.97;;;3.22;;
53688;SDS011;39583;54.682;30.662;2023-10-31T13:41:15;8.48;;;3.65;;
53688;SDS011;39583;54.682;30.662;2023-10-31T13:43:42;6.25;;;3.10;;
53688;SDS011;39583;54.682;30.662;2023-10-31T13:46:10;14.57;;;3.65;;
53688;SDS011;39583;54.682;30.662;2023-10-31T13:48:37;8.30;;;3.10;;
53688;SDS011;39583;54.682;30.662;2023-10-31T13:51:05;7.43;;;3.80;;
53688;SDS011;39583;54.682;30.662;2023-10-31T13:53:32;5.20;;;3.08;;
53688;SDS011;39583;54.682;30.662;2023-10-31T13:55:59;7.47;;;3.22;;
53688;SDS011;39583;54.682;30.662;2023-10-31T13:58:27;7.97;;;3.13;;
53688;SDS011;39583;54.682;30.662;2023-10-31T14:00:54;7.65;;;3.53;;
53688;SDS011;39583;54.682;30.662;2023-10-31T14:03:21;5.18;;;2.65;;
53688;SDS011;39583;54.682;30.662;2023-10-31T14:05:50;5.53;;;3.30;;
53688;SDS011;39583;54.682;30.662;2023-10-31T14:08:18;6.20;;;2.80;;
53688;SDS011;39583;54.682;30.662;2023-10-31T14:10:47;9.68;;;3.15;;
53688;SDS011;39583;54.682;30.662;2023-10-31T14:13:16;7.70;;;3.13;;
53688;SDS011;39583;54.682;30.662;2023-10-31T14:15:44;6.80;;;3.13;;
53688;SDS011;39583;54.682;30.662;2023-10-31T14:18:11;10.10;;;3.20;;
53688;SDS011;39583;54.682;30.662;2023-10-31T14:20:38;8.10;;;3.15;;
53688;SDS011;39583;54.682;30.662;2023-10-31T14:23:07;4.85;;;2.65;;
53688;SDS011;39583;54.682;30.662;2023-10-31T14:25:35;8.93;;;3.75;;
53688;SDS011;39583;54.682;30.662;2023-10-31T14:28:02;5.30;;;2.70;;
53688;SDS011;39583;54.682;30.662;2023-10-31T14:30:31;5.10;;;2.55;;
53688;SDS011;39583;54.682;30.662;2023-10-31T14:33:00;6.53;;;3.30;;
53688;SDS011;39583;54.682;30.662;2023-10-31T14:35:27;6.03;;;3.22;;
53688;SDS011;39583;54.682;30.662;2023-10-31T14:37:55;7.10;;;3.00;;
53688;SDS011;39583;54.682;30.662;2023-10-31T14:40:22;7.10;;;3.35;;
53688;SDS011;39583;54.682;30.662;2023-10-31T14:42:50;6.60;;;3.45;;
53688;SDS011;39583;54.682;30.662;2023-10-31T14:45:17;6.97;;;3.35;;
53688;SDS011;39583;54.682;30.662;2023-10-31T14:47:45;6.35;;;3.53;;
53688;SDS011;39583;54.682;30.662;2023-10-31T14:50:12;6.78;;;3.50;;
53688;SDS011;39583;54.682;30.662;2023-10-31T14:52:40;9.38;;;3.38;;
53688;SDS011;39583;54.682;30.662;2023-10-31T14:55:08;7.18;;;3.58;;
53688;SDS011;39583;54.682;30.662;2023-10-31T14:57:36;6.82;;;3.50;;
53688;SDS011;39583;54.682;30.662;2023-10-31T15:00:05;8.65;;;3.55;;
53688;SDS011;39583;54.682;30.662;2023-10-31T15:02:34;5.25;;;3.35;;
53688;SDS011;39583;54.682;30.662;2023-10-31T15:05:02;6.25;;;3.60;;
53688;SDS011;39583;54.682;30.662;2023-10-31T15:07:30;8.10;;;3.17;;
53688;SDS011;39583;54.682;30.662;2023-10-31T15:09:57;7.05;;;3.70;;
53688;SDS011;39583;54.682;30.662;2023-10-31T15:12:25;5.25;;;3.45;;
53688;SDS011;39583;54.682;30.662;2023-10-31T15:14:53;10.13;;;3.08;;
53688;SDS011;39583;54.682;30.662;2023-10-31T15:17:21;7.43;;;3.20;;
53688;SDS011;39583;54.682;30.662;2023-10-31T15:19:49;8.38;;;4.05;;
53688;SDS011;39583;54.682;30.662;2023-10-31T15:22:17;9.95;;;3.92;;
53688;SDS011;39583;54.682;30.662;2023-10-31T15:24:44;11.23;;;3.58;;
53688;SDS011;39583;54.682;30.662;2023-10-31T15:27:12;7.30;;;3.30;;
53688;SDS011;39583;54.682;30.662;2023-10-31T15:29:44;9.32;;;3.85;;
53688;SDS011;39583;54.682;30.662;2023-10-31T15:32:12;9.10;;;3.38;;
53688;SDS011;39583;54.682;30.662;2023-10-31T15:34:40;7.60;;;3.20;;
53688;SDS011;39583;54.682;30.662;2023-10-31T15:37:10;8.80;;;3.78;;
53688;SDS011;39583;54.682;30.662;2023-10-31T15:39:38;8.82;;;3.42;;
53688;SDS011;39583;54.682;30.662;2023-10-31T15:42:09;7.05;;;3.30;;
53688;SDS011;39583;54.682;30.662;2023-10-31T15:44:37;10.27;;;3.80;;
53688;SDS011;39583;54.682;30.662;2023-10-31T15:47:07;6.43;;;3.20;;
53688;SDS011;39583;54.682;30.662;2023-10-31T15:49:34;5.65;;;3.38;;
53688;SDS011;39583;54.682;30.662;2023-10-31T15:52:05;7.72;;;3.40;;
53688;SDS011;39583;54.682;30.662;2023-10-31T15:54:32;6.78;;;3.25;;
53688;SDS011;39583;54.682;30.662;2023-10-31T15:57:00;5.15;;;3.08;;
53688;SDS011;39583;54.682;30.662;2023-10-31T15:59:28;10.55;;;3.78;;
53688;SDS011;39583;54.682;30.662;2023-10-31T16:01:55;7.80;;;3.58;;
53688;SDS011;39583;54.682;30.662;2023-10-31T16:04:23;8.60;;;3.22;;
53688;SDS011;39583;54.682;30.662;2023-10-31T16:06:51;7.25;;;3.70;;
53688;SDS011;39583;54.682;30.662;2023-10-31T16:09:18;7.10;;;3.88;;
53688;SDS011;39583;54.682;30.662;2023-10-31T16:11:46;7.07;;;2.90;;
53688;SDS011;39583;54.682;30.662;2023-10-31T16:14:13;10.85;;;3.58;;
53688;SDS011;39583;54.682;30.662;2023-10-31T16:16:41;9.60;;;3.38;;
53688;SDS011;39583;54.682;30.662;2023-10-31T16:19:09;8.73;;;3.65;;
53688;SDS011;39583;54.682;30.662;2023-10-31T16:21:36;8.93;;;3.97;;
53688;SDS011;39583;54.682;30.662;2023-10-31T16:24:04;11.15;;;3.72;;
53688;SDS011;39583;54.682;30.662;2023-10-31T16:26:32;12.05;;;3.78;;
53688;SDS011;39583;54.682;30.662;2023-10-31T16:28:59;10.07;;;4.18;;
53688;SDS011;39583;54.682;30.662;2023-10-31T16:31:27;9.38;;;4.00;;
53688;SDS011;39583;54.682;30.662;2023-10-31T16:33:55;7.50;;;4.15;;
53688;SDS011;39583;54.682;30.662;2023-10-31T16:36:22;9.40;;;4.15;;
53688;SDS011;39583;54.682;30.662;2023-10-31T16:38:51;9.40;;;4.07;;
53688;SDS011;39583;54.682;30.662;2023-10-31T16:41:19;7.60;;;4.22;;
53688;SDS011;39583;54.682;30.662;2023-10-31T16:43:47;8.38;;;3.85;;
53688;SDS011;39583;54.682;30.662;2023-10-31T16:46:14;10.68;;;4.60;;
53688;SDS011;39583;54.682;30.662;2023-10-31T16:48:42;11.00;;;4.38;;
53688;SDS011;39583;54.682;30.662;2023-10-31T16:51:18;9.98;;;4.70;;
53688;SDS011;39583;54.682;30.662;2023-10-31T16:53:46;7.85;;;4.07;;
53688;SDS011;39583;54.682;30.662;2023-10-31T16:56:14;8.07;;;4.07;;
53688;SDS011;39583;54.682;30.662;2023-10-31T16:58:43;6.57;;;4.07;;
53688;SDS011;39583;54.682;30.662;2023-10-31T17:01:13;12.98;;;4.53;;
53688;SDS011;39583;54.682;30.662;2023-10-31T17:03:43;13.10;;;4.57;;
53688;SDS011;39583;54.682;30.662;2023-10-31T17:06:13;11.43;;;4.95;;
53688;SDS011;39583;54.682;30.662;2023-10-31T17:08:42;13.77;;;4.80;;
53688;SDS011;39583;54.682;30.662;2023-10-31T17:11:09;8.90;;;4.45;;
53688;SDS011;39583;54.682;30.662;2023-10-31T17:13:37;8.55;;;4.57;;
53688;SDS011;39583;54.682;30.662;2023-10-31T17:16:04;6.43;;;4.10;;
53688;SDS011;39583;54.682;30.662;2023-10-31T17:18:34;10.65;;;4.63;;
53688;SDS011;39583;54.682;30.662;2023-10-31T17:21:03;9.68;;;4.70;;
53688;SDS011;39583;54.682;30.662;2023-10-31T17:23:31;10.55;;;4.47;;
53688;SDS011;39583;54.682;30.662;2023-10-31T17:25:58;11.98;;;5.05;;
53688;SDS011;39583;54.682;30.662;2023-10-31T17:28:26;10.98;;;5.07;;
53688;SDS011;39583;54.682;30.662;2023-10-31T17:30:54;7.18;;;4.47;;
53688;SDS011;39583;54.682;30.662;2023-10-31T17:33:21;13.38;;;4.93;;
53688;SDS011;39583;54.682;30.662;2023-10-31T17:35:51;9.25;;;4.50;;
53688;SDS011;39583;54.682;30.662;2023-10-31T17:38:19;11.63;;;5.20;;
53688;SDS011;39583;54.682;30.662;2023-10-31T17:40:49;11.80;;;5.15;;
53688;SDS011;39583;54.682;30.662;2023-10-31T17:43:17;7.60;;;4.70;;
53688;SDS011;39583;54.682;30.662;2023-10-31T17:45:46;9.52;;;4.78;;
53688;SDS011;39583;54.682;30.662;2023-10-31T17:48:15;11.85;;;4.72;;
53688;SDS011;39583;54.682;30.662;2023-10-31T17:50:42;10.57;;;5.38;;
53688;SDS011;39583;54.682;30.662;2023-10-31T17:53:12;12.98;;;5.40;;
53688;SDS011;39583;54.682;30.662;2023-10-31T17:55:42;12.95;;;4.78;;
53688;SDS011;39583;54.682;30.662;2023-10-31T17:58:12;10.43;;;4.82;;
53688;SDS011;39583;54.682;30.662;2023-10-31T18:00:40;10.30;;;5.07;;
53688;SDS011;39583;54.682;30.662;2023-10-31T18:03:08;10.07;;;5.35;;
53688;SDS011;39583;54.682;30.662;2023-10-31T18:05:36;12.05;;;5.22;;
53688;SDS011;39583;54.682;30.662;2023-10-31T18:08:04;12.65;;;4.68;;
53688;SDS011;39583;54.682;30.662;2023-10-31T18:10:32;8.13;;;4.57;;
53688;SDS011;39583;54.682;30.662;2023-10-31T18:12:59;10.48;;;5.25;;
53688;SDS011;39583;54.682;30.662;2023-10-31T18:15:30;7.13;;;4.60;;
53688;SDS011;39583;54.682;30.662;2023-10-31T18:17:57;12.73;;;5.88;;
53688;SDS011;39583;54.682;30.662;2023-10-31T18:20:25;10.13;;;5.40;;
53688;SDS011;39583;54.682;30.662;2023-10-31T18:22:53;19.15;;;5.95;;
53688;SDS011;39583;54.682;30.662;2023-10-31T18:25:21;13.90;;;5.18;;
53688;SDS011;39583;54.682;30.662;2023-10-31T18:27:48;10.98;;;5.28;;
53688;SDS011;39583;54.682;30.662;2023-10-31T18:30:16;11.00;;;5.28;;
53688;SDS011;39583;54.682;30.662;2023-10-31T18:32:46;19.73;;;5.63;;
